Time;durP1;ratioP1;P1;durP2;ratioP2;P2;SDS_P1;SDS_P2;PMS_P1;PMS_P2;Temp;Humidity;BMP_temperature;BMP_pressure;BME280_temperature;BME280_humidity;BME280_pressure;Samples;Min_cycle;Max_cycle;Signal;HPM_P1;HPM_P2
2023/10/10 06:49:11;;;;;;;20.77;6.90;;;;;;;12.96;73.17;97124.38;2079953;28;20543;-61
2023/10/10 06:50:14;;;;;;;18.50;7.00;;;;;;;13.26;72.96;97126.47;2078502;28;20222;-63
2023/10/10 06:51:16;;;;;;;20.17;6.93;;;;;;;13.33;72.86;97130.47;2079955;28;20722;-63
2023/10/10 06:52:18;;;;;;;31.17;6.43;;;;;;;13.45;72.28;97119.44;2080471;28;20208;-63
2023/10/10 06:53:35;;;;;;;16.23;6.05;;;;;;;13.56;71.68;97124.16;2078737;28;20331;-63
2023/10/10 06:55:47;;;;;;;23.60;6.97;;;;;;;12.96;73.28;97106.84;2083357;28;20572;-63
2023/10/10 06:57:04;;;;;;;19.33;5.82;;;;;;;13.64;71.80;97124.63;2082542;28;20193;-63
2023/10/10 06:58:06;;;;;;;22.33;8.00;;;;;;;13.76;71.00;97117.91;2082795;28;20216;-63
2023/10/10 06:59:16;;;;;;;19.40;7.10;;;;;;;14.02;70.62;97113.97;2084082;28;20196;-63
2023/10/10 07:00:21;;;;;;;23.55;6.78;;;;;;;14.20;69.75;97116.59;2083534;28;20228;-63
2023/10/10 07:01:24;;;;;;;23.95;6.68;;;;;;;14.86;68.85;97120.16;2083797;28;20201;-63
2023/10/10 07:02:26;;;;;;;23.98;6.95;;;;;;;15.19;66.43;97116.59;2082973;28;20283;-62
2023/10/10 07:03:33;;;;;;;24.13;8.50;;;;;;;14.83;67.77;97121.16;2079587;28;20653;-62
2023/10/10 07:04:35;;;;;;;20.08;7.18;;;;;;;14.81;67.27;97116.94;2082566;28;20666;-63
2023/10/10 07:05:39;;;;;;;15.57;6.63;;;;;;;14.58;67.68;97118.13;2083005;28;20200;-63
2023/10/10 07:06:45;;;;;;;18.30;6.78;;;;;;;14.64;67.70;97115.16;2080670;28;20851;-63
2023/10/10 07:07:58;;;;;;;30.33;6.90;;;;;;;14.84;67.20;97116.75;2084355;28;20283;-63
2023/10/10 07:09:27;;;;;;;17.23;6.57;;;;;;;15.42;66.55;97106.56;2080681;28;20197;-63
2023/10/10 07:10:36;;;;;;;15.20;6.60;;;;;;;15.58;65.87;97111.78;2075452;28;20603;-63
2023/10/10 07:11:40;;;;;;;16.95;7.13;;;;;;;15.79;64.66;97109.69;2072851;28;20205;-63
2023/10/10 07:12:42;;;;;;;19.45;6.75;;;;;;;16.38;63.38;97100.97;2075048;28;20189;-63
2023/10/10 07:13:44;;;;;;;19.98;7.95;;;;;;;16.61;62.75;97102.22;2074721;28;20866;-63
2023/10/10 07:14:47;;;;;;;16.58;6.65;;;;;;;16.37;62.80;97107.22;2079291;28;20410;-63
2023/10/10 07:15:52;;;;;;;23.15;7.93;;;;;;;16.31;62.83;97111.88;2084020;28;20201;-63
2023/10/10 07:16:57;;;;;;;18.45;7.28;;;;;;;16.08;63.60;97115.91;2081131;28;20203;-63
2023/10/10 07:18:08;;;;;;;22.98;7.72;;;;;;;16.14;64.15;97125.25;2081140;28;20193;-63
2023/10/10 07:19:29;;;;;;;22.27;7.30;;;;;;;16.23;63.88;97113.31;2083167;28;21051;-63
2023/10/10 07:21:53;;;;;;;18.75;7.13;;;;;;;16.76;62.96;97129.41;2083631;28;20185;-63
2023/10/10 07:22:59;;;;;;;22.90;7.20;;;;;;;16.89;62.96;97130.34;2084055;28;20640;-63
2023/10/10 07:24:13;;;;;;;44.35;9.02;;;;;;;17.53;61.64;97131.66;2082641;28;20204;-64
2023/10/10 07:25:31;;;;;;;31.63;8.18;;;;;;;17.33;61.05;97131.16;2080203;28;20217;-63
2023/10/10 07:26:41;;;;;;;28.58;7.75;;;;;;;17.63;59.87;97128.28;2078985;28;20201;-63
2023/10/10 07:27:43;;;;;;;22.90;7.35;;;;;;;17.58;60.18;97130.38;2081972;28;20231;-64
2023/10/10 07:28:48;;;;;;;22.58;7.30;;;;;;;17.61;60.11;97134.63;2082756;28;20185;-63
2023/10/10 07:30:55;;;;;;;19.88;7.28;;;;;;;16.95;62.13;97137.91;2083383;28;20196;-63
2023/10/10 07:33:22;;;;;;;18.45;6.90;;;;;;;16.93;62.20;97139.78;2083093;28;20200;-63
2023/10/10 07:34:34;;;;;;;20.42;6.95;;;;;;;17.69;60.50;97132.34;2081125;28;20287;-64
2023/10/10 07:35:43;;;;;;;23.33;6.82;;;;;;;18.06;60.07;97134.34;2082195;28;20304;-63
2023/10/10 07:36:50;;;;;;;20.20;7.35;;;;;;;18.25;59.51;97144.53;2083035;28;20362;-63
2023/10/10 07:37:58;;;;;;;20.23;6.40;;;;;;;17.74;60.41;97134.69;2080795;28;20201;-63
2023/10/10 07:40:21;;;;;;;20.50;7.30;;;;;;;17.44;61.74;97141.00;2080818;28;21199;-63
2023/10/10 07:41:27;;;;;;;19.20;7.05;;;;;;;17.85;60.58;97145.38;2082541;28;20196;-63
2023/10/10 07:42:30;;;;;;;22.58;7.05;;;;;;;17.81;60.60;97145.69;2082284;28;20236;-63
2023/10/10 07:43:34;;;;;;;27.17;7.80;;;;;;;17.54;61.25;97147.38;2081838;28;20645;-63
2023/10/10 07:44:36;;;;;;;18.52;7.10;;;;;;;17.44;61.74;97141.84;2080700;28;20224;-64
2023/10/10 07:45:43;;;;;;;16.70;6.82;;;;;;;17.68;61.42;97143.84;2082533;28;21001;-64
2023/10/10 07:47:32;;;;;;;33.78;7.50;;;;;;;17.70;61.18;97147.25;2079581;28;20609;-64
2023/10/10 07:49:16;;;;;;;25.80;7.50;;;;;;;18.55;59.47;97131.00;2082529;28;20189;-64
2023/10/10 07:50:26;;;;;;;28.67;8.27;;;;;;;18.66;59.14;97142.63;2081914;28;20779;-64
2023/10/10 07:51:28;;;;;;;23.73;6.30;;;;;;;19.11;58.13;97139.53;2081566;28;20263;-63
2023/10/10 07:52:35;;;;;;;19.23;7.30;;;;;;;19.34;57.18;97137.88;2080785;28;20746;-63
2023/10/10 07:53:42;;;;;;;27.67;7.32;;;;;;;19.90;56.25;97132.03;2080061;28;20664;-64
2023/10/10 07:54:45;;;;;;;18.83;6.55;;;;;;;19.88;56.05;97136.59;2080828;28;20221;-63
2023/10/10 07:56:00;;;;;;;24.77;7.45;;;;;;;20.01;56.03;97140.03;2082317;28;20193;-63
2023/10/10 07:57:07;;;;;;;29.80;7.65;;;;;;;20.11;55.28;97134.84;2083057;28;20197;-64
2023/10/10 07:58:10;;;;;;;31.88;7.65;;;;;;;20.14;54.94;97141.75;2083456;28;20227;-63
2023/10/10 07:59:13;;;;;;;27.13;7.10;;;;;;;20.00;55.48;97138.34;2081816;28;20272;-66
2023/10/10 08:00:17;;;;;;;35.13;8.43;;;;;;;20.79;53.98;97137.66;2082274;28;20291;-65
2023/10/10 08:01:19;;;;;;;28.15;7.15;;;;;;;21.28;52.90;97140.03;2083265;28;20208;-65
2023/10/10 08:02:34;;;;;;;27.30;7.25;;;;;;;21.49;52.09;97137.44;2082789;28;20275;-65
2023/10/10 08:03:37;;;;;;;24.23;7.43;;;;;;;21.03;53.58;97139.34;2083158;28;20291;-65
2023/10/10 08:04:38;;;;;;;24.20;6.50;;;;;;;21.36;53.03;97141.09;2083341;28;20224;-66
2023/10/10 08:05:42;;;;;;;16.52;6.18;;;;;;;21.35;52.61;97135.91;2082270;28;20196;-65
2023/10/10 08:06:44;;;;;;;23.75;7.63;;;;;;;22.02;50.18;97136.69;2077775;28;20278;-65
2023/10/10 08:07:46;;;;;;;25.45;8.02;;;;;;;21.86;50.88;97139.75;2074515;28;20633;-65
2023/10/10 08:10:13;;;;;;;25.10;8.00;;;;;;;22.15;50.58;97137.31;2076975;28;20240;-65
2023/10/10 08:11:25;;;;;;;29.60;6.72;;;;;;;22.53;49.86;97143.06;2075087;28;20226;-65
2023/10/10 08:12:29;;;;;;;23.98;7.70;;;;;;;22.40;49.08;97139.75;2074695;28;20288;-65
2023/10/10 08:13:32;;;;;;;31.60;8.90;;;;;;;21.48;51.02;97141.06;2072387;28;20232;-65
2023/10/10 08:14:39;;;;;;;24.83;9.45;;;;;;;21.81;50.57;97139.31;2075235;28;20229;-65
2023/10/10 08:15:56;;;;;;;31.67;11.35;;;;;;;22.04;50.06;97142.69;2077131;28;20190;-65
2023/10/10 08:17:02;;;;;;;33.25;11.88;;;;;;;21.81;50.45;97147.28;2082130;28;20294;-65
2023/10/10 08:18:04;;;;;;;41.08;12.02;;;;;;;21.52;51.70;97143.38;2083343;28;20223;-65
2023/10/10 08:19:10;;;;;;;33.80;12.65;;;;;;;21.66;51.43;97142.25;2075658;28;20213;-65
2023/10/10 08:20:31;;;;;;;24.05;10.30;;;;;;;22.31;50.08;97147.53;2078239;28;20260;-65
2023/10/10 08:21:38;;;;;;;34.85;11.55;;;;;;;23.18;49.12;97149.97;2075007;28;20776;-65
2023/10/10 08:22:40;;;;;;;19.33;8.82;;;;;;;23.64;48.73;97141.38;2076142;28;20202;-65
2023/10/10 08:23:42;;;;;;;26.30;8.75;;;;;;;23.76;48.20;97143.91;2078036;28;20340;-65
2023/10/10 08:24:44;;;;;;;20.67;9.05;;;;;;;23.24;49.08;97149.44;2077742;28;20229;-65
2023/10/10 08:25:48;;;;;;;22.48;8.60;;;;;;;23.59;48.69;97146.28;2074733;28;20243;-65
2023/10/10 08:26:51;;;;;;;23.70;8.87;;;;;;;24.05;47.50;97143.09;2074498;28;20201;-65
2023/10/10 08:27:55;;;;;;;31.03;10.53;;;;;;;24.16;48.17;97145.59;2075167;28;20416;-65
2023/10/10 08:28:56;;;;;;;20.37;8.20;;;;;;;23.95;48.47;97149.28;2077997;28;20422;-65
2023/10/10 08:29:58;;;;;;;16.77;7.13;;;;;;;24.39;48.09;97139.97;2075075;28;21217;-65
2023/10/10 08:30:59;;;;;;;19.50;8.50;;;;;;;24.76;46.80;97148.06;2076454;28;20420;-65
2023/10/10 08:32:05;;;;;;;17.40;7.87;;;;;;;24.65;46.99;97153.56;2076605;28;20478;-65
2023/10/10 08:33:06;;;;;;;24.53;7.73;;;;;;;24.67;47.78;97150.75;2076873;28;20426;-65
2023/10/10 08:34:09;;;;;;;19.17;7.33;;;;;;;24.90;46.94;97148.56;2076836;28;20951;-65
2023/10/10 08:35:11;;;;;;;15.07;7.73;;;;;;;24.98;46.23;97150.53;2077027;28;20537;-66
2023/10/10 08:36:25;;;;;;;20.73;9.07;;;;;;;24.94;46.48;97149.97;2075891;28;20459;-65
2023/10/10 08:37:28;;;;;;;28.93;8.20;;;;;;;25.15;45.80;97152.38;2076314;28;20491;-65
2023/10/10 08:38:29;;;;;;;19.90;7.33;;;;;;;25.31;45.75;97142.91;2077611;28;20922;-65
2023/10/10 08:39:37;;;;;;;20.00;7.40;;;;;;;25.83;45.03;97135.13;2076096;28;20426;-65
2023/10/10 08:40:40;;;;;;;19.90;7.40;;;;;;;25.14;44.89;97149.88;2073455;28;20489;-66
2023/10/10 08:41:44;;;;;;;22.30;7.80;;;;;;;24.67;46.69;97142.75;2076554;28;20442;-65
2023/10/10 08:42:48;;;;;;;22.50;7.43;;;;;;;24.96;46.15;97144.47;2076054;28;20760;-65
2023/10/10 08:43:53;;;;;;;16.93;6.97;;;;;;;25.03;45.88;97140.25;2076456;28;20426;-65
2023/10/10 08:44:57;;;;;;;17.40;8.80;;;;;;;24.94;46.00;97139.28;2076296;28;20961;-65
2023/10/10 08:46:04;;;;;;;18.40;6.83;;;;;;;25.24;44.63;97140.84;2075586;28;20450;-65
2023/10/10 08:47:07;;;;;;;21.93;7.60;;;;;;;25.52;44.37;97142.66;2074057;28;20805;-65
2023/10/10 08:48:13;;;;;;;15.60;7.93;;;;;;;26.03;43.13;97148.31;2074836;28;20427;-65
2023/10/10 08:49:16;;;;;;;22.43;7.60;;;;;;;25.42;43.98;97135.56;2075263;28;20438;-65
2023/10/10 08:50:17;;;;;;;22.43;7.90;;;;;;;25.38;43.37;97131.50;2078267;28;20427;-66
2023/10/10 08:51:18;;;;;;;12.77;6.37;;;;;;;25.59;42.12;97141.91;2078187;28;20419;-66
2023/10/10 08:52:22;;;;;;;22.57;7.53;;;;;;;25.83;42.23;97142.31;2076858;28;20422;-65
2023/10/10 08:53:24;;;;;;;20.53;8.50;;;;;;;25.67;42.30;97140.31;2076222;28;20518;-65
2023/10/10 08:54:27;;;;;;;17.93;7.70;;;;;;;25.34;43.15;97135.41;2076407;28;20542;-65
2023/10/10 08:55:29;;;;;;;21.90;8.80;;;;;;;25.06;41.38;97134.59;2076690;28;21033;-65
2023/10/10 08:56:37;;;;;;;20.90;8.10;;;;;;;25.59;40.74;97136.56;2076497;28;20561;-65
2023/10/10 08:57:39;;;;;;;16.03;7.23;;;;;;;25.69;40.11;97135.66;2077386;28;20415;-65
2023/10/10 08:58:41;;;;;;;19.40;7.30;;;;;;;26.34;39.38;97140.75;2076557;28;20422;-65
2023/10/10 08:59:45;;;;;;;17.30;7.70;;;;;;;26.58;37.74;97136.59;2075226;28;20455;-65
2023/10/10 09:00:48;;;;;;;17.33;6.20;;;;;;;26.44;37.24;97129.97;2078437;28;20433;-65
2023/10/10 09:01:50;;;;;;;15.67;6.90;;;;;;;26.36;38.61;97137.91;2078022;28;20426;-65
2023/10/10 09:02:53;;;;;;;15.13;7.43;;;;;;;26.15;38.03;97132.94;2074692;28;20419;-66
2023/10/10 09:03:57;;;;;;;19.57;8.17;;;;;;;25.87;37.88;97141.84;2076085;28;20429;-65
2023/10/10 09:04:59;;;;;;;15.37;7.03;;;;;;;25.38;39.55;97130.66;2075203;28;20446;-65
2023/10/10 09:06:19;;;;;;;22.77;8.27;;;;;;;25.50;39.00;97129.44;2075346;28;20434;-64
2023/10/10 09:07:21;;;;;;;12.97;7.20;;;;;;;25.18;39.51;97135.22;2078512;28;20430;-64
2023/10/10 09:08:29;;;;;;;18.00;6.80;;;;;;;25.03;39.94;97132.22;2077234;28;20426;-64
2023/10/10 09:09:34;;;;;;;15.53;6.60;;;;;;;25.03;39.62;97127.72;2077148;28;20465;-64
2023/10/10 09:10:42;;;;;;;27.83;7.20;;;;;;;25.28;39.54;97133.38;2077214;28;20918;-64
2023/10/10 09:11:43;;;;;;;18.50;7.43;;;;;;;24.96;40.64;97129.28;2073130;28;20493;-64
2023/10/10 09:12:53;;;;;;;18.83;7.07;;;;;;;24.89;39.32;97129.03;2076455;28;20453;-64
2023/10/10 09:13:55;;;;;;;17.50;6.73;;;;;;;25.07;40.39;97131.75;2075285;28;20423;-64
2023/10/10 09:14:57;;;;;;;23.43;6.83;;;;;;;24.80;40.34;97132.59;2074477;28;20454;-64
2023/10/10 09:16:00;;;;;;;13.80;6.93;;;;;;;25.14;40.52;97129.34;2074987;28;20451;-64
2023/10/10 09:17:06;;;;;;;20.70;7.87;;;;;;;25.36;39.99;97125.47;2077299;28;20786;-64
2023/10/10 09:18:17;;;;;;;14.97;7.27;;;;;;;25.56;36.82;97125.31;2075314;28;20533;-64
2023/10/10 09:19:19;;;;;;;19.07;7.10;;;;;;;25.65;39.17;97127.09;2075460;28;20424;-64
2023/10/10 09:20:32;;;;;;;20.83;7.50;;;;;;;25.71;38.01;97126.50;2075242;28;20961;-64
2023/10/10 09:21:44;;;;;;;14.00;6.90;;;;;;;26.31;37.06;97124.16;2075836;28;20208;-64
2023/10/10 09:22:51;;;;;;;14.20;7.40;;;;;;;26.23;37.18;97127.63;2076876;28;20506;-64
2023/10/10 09:24:25;;;;;;;17.43;7.53;;;;;;;25.97;36.20;97119.53;2073134;28;20546;-64
2023/10/10 09:25:48;;;;;;;18.10;6.93;;;;;;;26.14;33.92;97132.06;2076285;28;20431;-64
2023/10/10 09:26:50;;;;;;;12.93;7.13;;;;;;;26.11;32.43;97124.38;2076215;28;20542;-64
2023/10/10 09:28:05;;;;;;;22.20;6.83;;;;;;;26.46;33.92;97130.66;2077769;28;20195;-64
2023/10/10 09:29:15;;;;;;;20.03;6.83;;;;;;;26.48;35.00;97134.00;2077000;28;20422;-64
2023/10/10 09:30:20;;;;;;;20.17;8.35;;;;;;;26.11;34.66;97128.88;2075905;28;20453;-64
2023/10/10 09:31:31;;;;;;;14.30;6.35;;;;;;;26.41;35.74;97127.63;2076431;28;20194;-64
2023/10/10 09:32:42;;;;;;;17.03;7.63;;;;;;;26.33;36.50;97136.41;2076179;28;20659;-64
2023/10/10 09:33:45;;;;;;;19.80;7.68;;;;;;;26.08;36.49;97128.19;2072710;28;20951;-64
2023/10/10 09:34:49;;;;;;;29.13;7.30;;;;;;;25.94;37.79;97130.53;2074103;28;20308;-64
2023/10/10 09:35:58;;;;;;;19.83;7.80;;;;;;;26.05;37.53;97127.66;2075435;28;20489;-64
2023/10/10 09:37:05;;;;;;;29.65;8.00;;;;;;;25.75;37.06;97127.03;2074990;28;20268;-65
2023/10/10 09:38:14;;;;;;;17.70;7.07;;;;;;;25.61;37.82;97124.88;2074121;28;20193;-64
2023/10/10 09:39:36;;;;;;;12.07;5.70;;;;;;;26.08;37.40;97127.38;2073745;28;20427;-64
2023/10/10 09:40:40;;;;;;;24.98;8.80;;;;;;;26.06;37.79;97124.81;2075820;28;20197;-64
2023/10/10 09:45:51;;;;;;;21.13;6.93;;;;;;;25.96;38.97;97120.53;2077179;28;20644;-64
2023/10/10 09:48:06;;;;;;;29.52;8.25;;;;;;;25.79;39.56;97109.69;2076938;28;20194;-64
2023/10/10 09:52:47;;;;;;;24.50;6.85;;;;;;;25.94;38.81;97131.38;2074937;28;20193;-65
2023/10/10 09:52:58;;;;;;;17.67;6.50;;;;;;;26.48;39.24;97133.16;2076756;28;20193;-64
2023/10/10 09:54:15;;;;;;;23.65;6.55;;;;;;;26.63;38.67;97134.25;2075803;28;20319;-64
2023/10/10 09:56:22;;;;;;;28.88;7.30;;;;;;;26.79;37.48;97132.72;2076166;28;20651;-64
2023/10/10 09:57:26;;;;;;;15.90;6.68;;;;;;;26.83;38.13;97131.38;2077115;28;20193;-64
2023/10/10 09:58:29;;;;;;;20.75;6.60;;;;;;;26.45;38.98;97131.66;2075553;28;20545;-64
2023/10/10 09:59:32;;;;;;;16.98;6.82;;;;;;;26.34;39.00;97130.06;2075738;28;20200;-64
2023/10/10 10:01:44;;;;;;;19.50;6.60;;;;;;;26.88;38.75;97129.06;2077072;28;20421;-64
2023/10/10 10:02:50;;;;;;;13.02;5.57;;;;;;;27.05;38.76;97133.50;2075926;28;20197;-64
2023/10/10 10:04:03;;;;;;;25.98;7.05;;;;;;;27.05;38.61;97141.53;2076342;28;20217;-64
2023/10/10 10:05:13;;;;;;;15.95;7.22;;;;;;;27.16;38.88;97137.75;2075517;28;20216;-64
2023/10/10 10:06:37;;;;;;;24.60;6.88;;;;;;;26.91;39.72;97139.47;2076048;28;20198;-64
2023/10/10 10:08:21;;;;;;;36.30;6.70;;;;;;;27.56;38.79;97134.56;2076242;28;20236;-64
2023/10/10 10:09:31;;;;;;;21.60;7.00;;;;;;;28.04;37.97;97141.03;2076249;28;20544;-64
2023/10/10 10:10:48;;;;;;;26.40;6.60;;;;;;;27.37;38.02;97144.53;2077845;28;20250;-64
2023/10/10 10:12:33;;;;;;;22.42;6.82;;;;;;;28.01;38.19;97136.81;2075356;28;20285;-64
2023/10/10 10:13:51;;;;;;;16.90;6.90;;;;;;;28.10;37.82;97142.19;2074189;28;20189;-64
2023/10/10 10:15:48;;;;;;;13.68;6.38;;;;;;;28.21;38.02;97136.50;2072887;28;20213;-64
2023/10/10 10:17:12;;;;;;;22.60;6.47;;;;;;;28.29;37.76;97141.00;2075921;28;20212;-64
2023/10/10 10:18:44;;;;;;;24.80;6.80;;;;;;;28.49;37.46;97146.88;2076457;28;20280;-64
2023/10/10 10:19:46;;;;;;;24.73;6.47;;;;;;;28.07;38.17;97143.38;2075930;28;20461;-64
2023/10/10 10:21:05;;;;;;;22.73;6.38;;;;;;;28.15;37.75;97145.22;2076363;28;20730;-64
2023/10/10 10:22:13;;;;;;;27.33;6.93;;;;;;;28.19;37.78;97138.53;2074836;28;20280;-64
2023/10/10 10:23:25;;;;;;;16.33;6.68;;;;;;;27.66;38.44;97138.75;2076325;28;20481;-63
2023/10/10 10:24:33;;;;;;;21.10;6.60;;;;;;;27.79;38.83;97132.91;2075281;28;20574;-63
2023/10/10 10:25:36;;;;;;;20.05;7.10;;;;;;;27.72;38.37;97145.31;2075177;28;20964;-62
2023/10/10 10:26:43;;;;;;;18.58;7.40;;;;;;;27.58;38.75;97136.06;2076231;28;20194;-62
2023/10/10 10:27:49;;;;;;;22.90;6.47;;;;;;;27.86;38.57;97143.84;2074592;28;20201;-62
2023/10/10 10:29:00;;;;;;;13.77;5.70;;;;;;;27.85;38.68;97142.97;2074363;28;20513;-62
2023/10/10 10:31:29;;;;;;;15.55;6.88;;;;;;;27.57;38.70;97130.88;2073862;28;20190;-63
2023/10/10 10:32:35;;;;;;;16.52;6.68;;;;;;;27.32;39.03;97138.81;2075097;28;20186;-63
2023/10/10 10:33:47;;;;;;;27.25;6.85;;;;;;;27.60;39.63;97138.59;2075600;28;20185;-62
2023/10/10 10:34:56;;;;;;;21.90;6.93;;;;;;;27.11;40.66;97140.09;2075535;28;20217;-62
2023/10/10 10:35:57;;;;;;;15.95;7.28;;;;;;;26.93;40.67;97134.81;2072737;28;20439;-62
2023/10/10 10:37:12;;;;;;;26.75;6.38;;;;;;;27.79;39.36;97132.91;2075452;28;20560;-62
2023/10/10 10:38:17;;;;;;;20.10;6.80;;;;;;;27.59;38.58;97131.53;2075914;28;20189;-62
2023/10/10 10:39:27;;;;;;;20.20;7.28;;;;;;;27.63;39.69;97138.25;2075004;28;20284;-62
2023/10/10 10:41:42;;;;;;;20.05;6.60;;;;;;;27.38;39.50;97128.25;2075813;28;20257;-62
2023/10/10 10:42:50;;;;;;;22.38;7.78;;;;;;;27.01;39.90;97137.50;2076684;28;20684;-63
2023/10/10 10:43:51;;;;;;;16.67;6.53;;;;;;;27.23;39.51;97132.56;2077063;28;20284;-62
2023/10/10 10:44:55;;;;;;;19.98;7.50;;;;;;;27.88;38.43;97127.56;2076225;28;20229;-62
2023/10/10 10:46:15;;;;;;;23.85;6.60;;;;;;;27.22;39.71;97136.25;2072334;28;20204;-62
2023/10/10 10:47:35;;;;;;;29.30;7.95;;;;;;;27.52;39.46;97134.88;2074313;28;20217;-62
2023/10/10 10:48:40;;;;;;;30.02;7.68;;;;;;;27.56;39.14;97134.56;2073327;28;20189;-62
2023/10/10 10:49:51;;;;;;;19.17;6.38;;;;;;;27.27;38.99;97139.28;2073448;28;20217;-63
2023/10/10 10:51:01;;;;;;;15.73;6.72;;;;;;;27.62;38.68;97134.75;2075208;28;20262;-63
2023/10/10 10:52:17;;;;;;;15.60;6.15;;;;;;;27.56;38.43;97132.72;2076510;28;20240;-63
2023/10/10 10:53:31;;;;;;;19.48;7.22;;;;;;;27.51;38.64;97130.50;2077091;28;20185;-62
2023/10/10 10:54:35;;;;;;;19.98;7.38;;;;;;;27.19;38.62;97139.28;2076887;28;20279;-62
2023/10/10 10:55:52;;;;;;;20.88;7.55;;;;;;;27.05;39.07;97125.47;2073498;28;20225;-62
2023/10/10 10:57:01;;;;;;;15.15;5.95;;;;;;;26.84;39.51;97131.25;2074979;28;20231;-62
2023/10/10 10:59:21;;;;;;;26.30;7.28;;;;;;;25.84;40.10;97136.81;2075928;28;20527;-62
2023/10/10 11:00:56;;;;;;;18.63;6.60;;;;;;;25.90;40.55;97132.66;2076558;28;20250;-63
2023/10/10 11:01:56;;;;;;;19.35;7.22;;;;;;;25.97;40.56;97136.41;2072343;28;20619;-62
2023/10/10 11:02:59;;;;;;;16.52;6.28;;;;;;;25.82;40.60;97128.09;2074319;28;20206;-63
2023/10/10 11:04:05;;;;;;;19.27;6.28;;;;;;;25.90;40.20;97130.00;2074781;28;20506;-63
2023/10/10 11:05:07;;;;;;;19.30;7.47;;;;;;;26.23;40.54;97124.94;2076447;28;20237;-62
2023/10/10 11:06:09;;;;;;;19.30;8.20;;;;;;;26.52;39.91;97131.84;2075509;28;20561;-63
2023/10/10 11:07:25;;;;;;;19.00;7.55;;;;;;;26.22;40.43;97128.63;2076094;28;20663;-63
2023/10/10 11:10:06;;;;;;;24.92;7.30;;;;;;;26.18;40.32;97122.75;2076059;28;20220;-63
2023/10/10 11:11:24;;;;;;;32.78;8.73;;;;;;;26.32;40.28;97117.81;2072418;28;20197;-63
2023/10/10 11:12:31;;;;;;;18.02;7.35;;;;;;;26.46;40.04;97124.44;2075154;28;20600;-63
2023/10/10 11:13:34;;;;;;;30.25;7.30;;;;;;;26.33;40.15;97114.97;2075004;28;20245;-63
2023/10/10 11:14:46;;;;;;;28.38;6.57;;;;;;;26.47;39.43;97118.09;2075062;28;20217;-63
2023/10/10 11:15:48;;;;;;;20.20;7.28;;;;;;;26.68;39.68;97109.69;2076040;28;20288;-63
2023/10/10 11:16:59;;;;;;;16.25;5.80;;;;;;;27.09;38.94;97119.81;2074390;28;20208;-63
2023/10/10 11:18:07;;;;;;;26.58;7.00;;;;;;;27.29;38.51;97107.81;2075454;28;20265;-62
2023/10/10 11:19:24;;;;;;;16.30;6.55;;;;;;;27.16;39.37;97115.44;2075714;28;20518;-63
2023/10/10 11:20:29;;;;;;;29.60;7.90;;;;;;;27.06;39.64;97118.28;2075112;28;20668;-63
2023/10/10 11:21:31;;;;;;;19.00;7.75;;;;;;;26.58;39.69;97117.84;2076002;28;20217;-63
2023/10/10 11:22:38;;;;;;;23.80;6.70;;;;;;;26.96;39.74;97113.03;2076531;28;20201;-63
2023/10/10 11:23:41;;;;;;;16.63;6.93;;;;;;;27.11;39.08;97105.25;2076422;28;20224;-63
2023/10/10 11:24:48;;;;;;;20.73;7.25;;;;;;;27.26;39.10;97105.47;2076453;28;20631;-63
2023/10/10 11:26:00;;;;;;;18.10;6.80;;;;;;;27.26;38.86;97104.59;2076101;28;20231;-63
2023/10/10 11:28:23;;;;;;;18.08;5.47;;;;;;;26.59;40.01;97094.56;2077505;28;20626;-63
2023/10/10 11:29:28;;;;;;;21.80;6.72;;;;;;;26.68;40.24;97099.81;2076670;28;20189;-63
2023/10/10 11:30:31;;;;;;;15.77;6.65;;;;;;;27.10;39.63;97100.06;2075823;28;20308;-63
2023/10/10 11:31:35;;;;;;;23.40;8.05;;;;;;;27.02;39.60;97090.13;2075248;28;20216;-63
2023/10/10 11:32:46;;;;;;;19.50;6.45;;;;;;;26.76;39.61;97092.88;2075671;28;20200;-63
2023/10/10 11:33:51;;;;;;;25.80;7.35;;;;;;;26.62;39.75;97083.56;2075071;28;20197;-63
2023/10/10 11:35:17;;;;;;;13.52;6.63;;;;;;;26.57;40.41;97094.72;2073227;28;20320;-63
2023/10/10 11:36:38;;;;;;;18.10;7.15;;;;;;;26.63;40.50;97085.25;2075316;28;20198;-63
2023/10/10 11:37:44;;;;;;;29.60;7.47;;;;;;;26.64;39.83;97084.22;2076180;28;20209;-64
2023/10/10 11:38:55;;;;;;;19.42;7.28;;;;;;;26.61;39.72;97087.22;2075146;28;20190;-63
2023/10/10 11:40:19;;;;;;;16.05;6.72;;;;;;;26.53;39.94;97086.16;2074349;28;20874;-63
2023/10/10 11:41:31;;;;;;;17.58;7.07;;;;;;;26.44;39.79;97083.63;2073491;28;20194;-63
2023/10/10 11:42:33;;;;;;;18.73;6.65;;;;;;;26.31;39.69;97090.22;2077338;28;20194;-63
2023/10/10 11:43:55;;;;;;;23.80;8.20;;;;;;;26.65;38.10;97085.91;2076288;28;20201;-63
2023/10/10 11:45:01;;;;;;;33.45;7.47;;;;;;;27.29;37.99;97075.63;2074192;28;20228;-62
2023/10/10 11:46:03;;;;;;;21.05;7.22;;;;;;;26.56;39.25;97074.31;2077002;28;20210;-63
2023/10/10 11:47:07;;;;;;;18.92;7.20;;;;;;;26.53;39.03;97080.00;2077286;28;20750;-63
2023/10/10 11:48:13;;;;;;;17.58;7.30;;;;;;;26.70;39.27;97078.22;2077200;28;20272;-63
2023/10/10 11:49:15;;;;;;;34.15;7.53;;;;;;;26.70;39.39;97070.19;2076156;28;20189;-63
2023/10/10 11:50:17;;;;;;;28.55;7.10;;;;;;;26.70;39.68;97075.56;2080448;28;20235;-63
2023/10/10 11:51:35;;;;;;;42.95;7.45;;;;;;;26.97;39.14;97065.66;2080211;28;20255;-63
2023/10/10 11:52:52;;;;;;;25.60;6.30;;;;;;;27.20;38.21;97074.78;2075300;28;20239;-63
2023/10/10 11:53:54;;;;;;;21.00;8.00;;;;;;;27.27;38.08;97066.91;2075826;28;20194;-63
2023/10/10 11:54:58;;;;;;;24.00;7.63;;;;;;;27.35;37.59;97066.09;2075531;28;20301;-63
2023/10/10 11:56:07;;;;;;;17.30;7.40;;;;;;;26.73;38.18;97068.06;2077696;28;20197;-63
2023/10/10 11:57:08;;;;;;;17.00;7.20;;;;;;;26.91;38.41;97074.34;2074528;28;20645;-63
2023/10/10 11:58:16;;;;;;;22.15;7.15;;;;;;;27.58;37.75;97066.34;2077896;28;20213;-63
2023/10/10 11:59:18;;;;;;;19.45;8.43;;;;;;;28.01;37.57;97063.50;2076450;28;20193;-62
2023/10/10 12:00:22;;;;;;;23.52;6.70;;;;;;;27.86;37.33;97066.88;2074998;28;20255;-63
2023/10/10 12:02:49;;;;;;;19.45;7.28;;;;;;;27.56;38.36;97062.16;2078473;28;20200;-63
2023/10/10 12:04:04;;;;;;;21.88;7.90;;;;;;;27.23;38.35;97064.75;2076095;28;20752;-63
2023/10/10 12:06:41;;;;;;;15.43;7.28;;;;;;;26.68;39.59;97066.84;2083098;28;20197;-64
2023/10/10 12:07:43;;;;;;;20.50;7.25;;;;;;;26.62;39.43;97054.94;2077949;28;20236;-64
2023/10/10 12:08:50;;;;;;;22.15;7.70;;;;;;;26.56;39.32;97056.41;2075530;28;20201;-64
2023/10/10 12:09:55;;;;;;;26.05;7.72;;;;;;;26.78;39.38;97059.56;2076800;28;20225;-64
2023/10/10 12:11:33;;;;;;;21.17;7.47;;;;;;;26.91;39.76;97056.44;2077408;28;20333;-64
2023/10/10 12:12:25;;;;;;;15.52;7.35;;;;;;;26.88;39.09;97049.56;2077549;28;20189;-64
2023/10/10 12:14:31;;;;;;;20.75;7.57;;;;;;;27.00;39.54;97050.09;2075500;28;20315;-64
2023/10/10 12:15:38;;;;;;;23.20;7.22;;;;;;;26.93;39.00;97049.09;2077586;28;20236;-64
2023/10/10 12:16:40;;;;;;;22.30;6.60;;;;;;;27.09;39.33;97044.78;2076663;28;20192;-64
2023/10/10 12:17:41;;;;;;;26.13;7.78;;;;;;;26.86;39.42;97048.88;2075208;28;20281;-64
2023/10/10 12:18:45;;;;;;;16.70;7.03;;;;;;;26.73;39.35;97046.66;2077247;28;20229;-64
2023/10/10 12:19:46;;;;;;;19.00;8.27;;;;;;;26.89;39.23;97045.03;2077128;28;20331;-64
2023/10/10 12:20:48;;;;;;;21.20;7.30;;;;;;;27.28;39.07;97044.47;2075861;28;20536;-64
2023/10/10 12:21:50;;;;;;;23.35;8.30;;;;;;;27.53;38.86;97044.56;2075263;28;20190;-64
2023/10/10 12:22:51;;;;;;;19.42;7.75;;;;;;;27.25;38.94;97035.91;2076433;28;20194;-64
2023/10/10 12:23:57;;;;;;;15.45;7.20;;;;;;;27.63;39.00;97041.69;2077872;28;20220;-64
2023/10/10 12:25:04;;;;;;;21.42;7.65;;;;;;;28.18;38.16;97049.09;2076337;28;20681;-64
2023/10/10 12:26:08;;;;;;;19.52;8.15;;;;;;;28.49;37.68;97045.69;2078299;28;20288;-64
2023/10/10 12:27:10;;;;;;;20.95;7.70;;;;;;;27.30;37.87;97046.97;2076961;28;20288;-64
2023/10/10 12:28:17;;;;;;;25.33;8.10;;;;;;;27.77;38.53;97049.09;2077446;28;20591;-64
2023/10/10 12:29:22;;;;;;;22.83;7.85;;;;;;;27.92;37.97;97046.59;2077674;28;20243;-64
2023/10/10 12:30:26;;;;;;;18.52;6.70;;;;;;;27.90;38.22;97039.72;2076922;28;20290;-64
2023/10/10 12:31:33;;;;;;;19.65;8.80;;;;;;;28.17;37.38;97049.25;2074753;28;20186;-64
2023/10/10 12:32:35;;;;;;;19.90;7.27;;;;;;;28.58;36.87;97048.34;2074719;28;20263;-64